createdAt,value
2022-10-14T00:04:52.620Z,84.15
2022-10-14T00:09:55.504Z,84.81
2022-10-14T00:14:58.742Z,85.43
2022-10-14T00:20:02.214Z,85.07
2022-10-14T00:25:05.499Z,85.44
2022-10-14T00:30:11.522Z,85.96
2022-10-14T00:35:14.459Z,85.01
2022-10-14T00:40:18.094Z,85.17
2022-10-14T00:45:24.091Z,85.62
2022-10-14T00:50:28.069Z,85.45
2022-10-14T00:55:31.650Z,86.40
2022-10-14T01:00:37.121Z,87.39
2022-10-14T01:05:54.211Z,87.93
2022-10-14T01:11:08.462Z,87.97
2022-10-14T01:16:26.896Z,87.82
2022-10-14T01:21:49.302Z,88.03
2022-10-14T01:26:53.003Z,88.51
2022-10-14T01:32:13.235Z,90.73
2022-10-14T01:37:21.705Z,94.02
2022-10-14T01:42:30.324Z,97.53
2022-10-14T01:47:36.506Z,97.31
2022-10-14T01:53:05.514Z,97.15
2022-10-14T01:58:13.768Z,96.47
2022-10-14T02:03:17.850Z,95.83
2022-10-14T02:08:35.313Z,97.96
2022-10-14T02:14:01.523Z,98.93
2022-10-14T02:19:10.815Z,94.26
2022-10-14T02:24:33.283Z,95.02
2022-10-14T02:29:40.880Z,95.25
2022-10-14T02:34:49.419Z,95.20
2022-10-14T02:40:05.867Z,97.40
2022-10-14T02:45:11.156Z,98.06
2022-10-14T02:50:15.053Z,99.53
2022-10-14T02:55:18.538Z,99.84
2022-10-14T03:00:22.067Z,100.00
2022-10-14T03:05:25.172Z,100.00
2022-10-14T03:10:31.211Z,100.00
2022-10-14T03:15:34.743Z,100.00
2022-10-14T03:20:39.883Z,100.00
2022-10-14T03:25:45.348Z,100.00
2022-10-14T03:31:03.499Z,100.00
2022-10-14T03:36:26.805Z,100.00
2022-10-14T03:41:33.340Z,100.00
2022-10-14T03:46:37.131Z,100.00
2022-10-14T03:51:40.686Z,100.00
2022-10-14T03:56:56.835Z,100.00
2022-10-14T04:02:03.088Z,100.00
2022-10-14T04:07:07.351Z,100.00
2022-10-14T04:12:13.145Z,100.00
2022-10-14T04:17:39.595Z,100.00
2022-10-14T04:22:48.570Z,100.00
2022-10-14T04:27:53.673Z,100.00
2022-10-14T04:32:59.983Z,100.00
2022-10-14T04:38:03.419Z,100.00
2022-10-14T04:43:06.475Z,100.00
2022-10-14T04:48:15.822Z,100.00
2022-10-14T04:53:22.357Z,100.00
2022-10-14T04:58:46.021Z,100.00
2022-10-14T05:03:51.682Z,100.00
2022-10-14T05:08:55.325Z,100.00
2022-10-14T05:13:59.558Z,100.00
2022-10-14T05:19:06.137Z,100.00
2022-10-14T05:24:13.543Z,100.00
2022-10-14T05:29:19.195Z,100.00
2022-10-14T05:34:26.075Z,100.00
2022-10-14T05:39:29.316Z,100.00
2022-10-14T05:44:33.425Z,100.00
2022-10-14T05:49:37.940Z,100.00
2022-10-14T05:54:43.402Z,100.00
2022-10-14T05:59:49.622Z,100.00
2022-10-14T06:04:53.685Z,100.00
2022-10-14T06:09:57.009Z,100.00
2022-10-14T06:15:00.815Z,100.00
2022-10-14T06:20:04.182Z,100.00
2022-10-14T06:25:08.741Z,100.00
2022-10-14T06:30:12.624Z,74.46
2022-10-14T06:35:16.219Z,56.41
2022-10-14T06:40:19.269Z,54.64
2022-10-14T06:45:22.316Z,47.49
2022-10-14T06:50:25.781Z,59.47
2022-10-14T06:55:29.115Z,58.49
2022-10-14T07:00:32.835Z,64.19
2022-10-14T07:05:36.506Z,71.32
2022-10-14T07:10:40.414Z,73.96
2022-10-14T07:15:44.012Z,74.17
2022-10-14T07:20:47.713Z,76.69
2022-10-14T07:25:51.092Z,75.15
2022-10-14T07:31:03.272Z,73.86
2022-10-14T07:36:17.207Z,62.46
2022-10-14T07:41:25.103Z,56.21
2022-10-14T07:46:32.527Z,61.88
2022-10-14T07:51:36.991Z,64.36
2022-10-14T07:56:43.198Z,66.93
2022-10-14T08:01:50.379Z,67.35
2022-10-14T08:06:54.447Z,66.99
2022-10-14T08:11:57.684Z,68.68
2022-10-14T08:17:01.239Z,60.13
2022-10-14T08:22:05.055Z,62.63
2022-10-14T08:27:10.719Z,60.50
2022-10-14T08:32:13.694Z,57.87
2022-10-14T08:37:17.219Z,56.29
2022-10-14T08:42:38.933Z,55.95
2022-10-14T08:47:46.567Z,52.01
2022-10-14T08:53:17.784Z,54.56
2022-10-14T08:58:42.618Z,55.05
2022-10-14T09:03:46.092Z,56.13
2022-10-14T09:08:51.141Z,58.87
2022-10-14T09:14:00.472Z,62.41
2022-10-14T09:19:06.581Z,62.04
2022-10-14T09:24:16.872Z,61.70
2022-10-14T09:29:19.841Z,61.76
2022-10-14T09:41:35.137Z,59.47
2022-10-14T09:46:38.883Z,58.55
2022-10-14T09:51:44.206Z,60.70
2022-10-14T09:56:48.439Z,61.53
2022-10-14T10:01:53.980Z,63.32
2022-10-14T10:06:58.498Z,63.75
2022-10-14T10:12:29.430Z,63.47
2022-10-14T10:17:35.811Z,63.17
2022-10-14T10:22:40.171Z,62.73
2022-10-14T10:27:48.224Z,63.33
2022-10-14T10:33:17.876Z,64.21
2022-10-14T10:38:31.983Z,64.52
2022-10-14T10:43:49.600Z,63.54
2022-10-14T10:49:24.434Z,62.62
2022-10-14T10:55:10.757Z,64.07
2022-10-14T11:05:44.928Z,64.89
2022-10-14T11:11:21.159Z,63.35
2022-10-14T11:16:50.349Z,65.00
2022-10-14T11:22:05.085Z,66.18
2022-10-14T11:27:27.259Z,67.32
2022-10-14T11:33:07.075Z,67.17
2022-10-14T11:38:48.751Z,63.58
2022-10-14T11:44:21.009Z,62.66
2022-10-14T11:49:31.939Z,62.00
2022-10-14T11:54:46.537Z,62.51
2022-10-14T12:00:03.051Z,60.73
2022-10-14T12:05:21.801Z,63.13
2022-10-14T12:10:40.029Z,63.53
2022-10-14T12:15:54.039Z,59.64
2022-10-14T12:21:05.744Z,57.69
2022-10-14T12:26:21.200Z,53.93
2022-10-14T12:31:37.352Z,53.57
2022-10-14T12:36:43.465Z,53.84
2022-10-14T12:41:55.982Z,53.86
2022-10-14T12:47:00.066Z,50.04
2022-10-14T12:52:06.706Z,53.20
2022-10-14T12:57:28.986Z,51.38
2022-10-14T13:02:34.495Z,53.47
2022-10-14T13:07:50.375Z,49.84
2022-10-14T13:12:54.322Z,50.75
2022-10-14T13:17:58.161Z,52.57
2022-10-14T13:23:53.095Z,52.72
2022-10-14T13:28:59.079Z,51.04
2022-10-14T13:34:22.105Z,52.24
2022-10-14T13:39:25.663Z,53.26
2022-10-14T13:44:29.764Z,51.88
2022-10-14T13:49:40.654Z,51.06
2022-10-14T13:54:43.815Z,55.17
2022-10-14T14:05:18.850Z,56.07
2022-10-14T14:10:25.106Z,53.71
2022-10-14T14:15:30.119Z,53.12
2022-10-14T14:20:35.557Z,53.31
2022-10-14T14:25:50.888Z,50.66
2022-10-14T14:31:02.898Z,51.05
2022-10-14T14:36:22.294Z,50.86
2022-10-14T14:41:33.358Z,52.12
2022-10-14T14:46:39.681Z,49.32
2022-10-14T14:51:44.560Z,51.29
2022-10-14T14:56:56.988Z,55.23
2022-10-14T15:02:01.607Z,57.76
2022-10-14T15:07:25.247Z,58.87
2022-10-14T15:12:40.181Z,60.27
2022-10-14T15:17:47.228Z,57.12
2022-10-14T15:22:50.789Z,57.30
2022-10-14T15:28:02.444Z,57.18
2022-10-14T15:33:26.259Z,58.92
2022-10-14T15:43:36.072Z,63.23
2022-10-14T15:48:49.274Z,62.42
2022-10-14T15:53:53.074Z,62.58
2022-10-14T15:58:56.457Z,64.23
2022-10-14T16:04:00.450Z,66.29
2022-10-14T16:09:03.512Z,63.63
2022-10-14T16:14:08.560Z,63.92
2022-10-14T16:19:12.558Z,67.93
2022-10-14T16:24:19.386Z,69.52
2022-10-14T16:29:22.671Z,70.56
2022-10-14T16:34:26.680Z,73.02
2022-10-14T16:39:30.133Z,74.98
2022-10-14T16:44:34.388Z,76.11
2022-10-14T16:49:37.469Z,74.37
2022-10-14T16:54:41.949Z,77.00
2022-10-14T16:59:45.394Z,75.33
2022-10-14T17:04:49.973Z,75.59
2022-10-14T17:09:53.179Z,78.03
2022-10-14T17:14:57.209Z,78.85
2022-10-14T17:20:00.288Z,80.00
2022-10-14T17:25:03.281Z,80.43
2022-10-14T17:30:07.100Z,80.27
2022-10-14T17:35:14.375Z,80.80
2022-10-14T17:40:20.037Z,82.59
2022-10-14T17:45:23.352Z,84.03
2022-10-14T17:50:27.359Z,83.73
2022-10-14T17:55:31.020Z,84.33
2022-10-14T18:00:34.418Z,84.54
2022-10-14T18:05:38.387Z,85.44
2022-10-14T18:10:41.393Z,85.34
2022-10-14T18:15:45.257Z,85.92
2022-10-14T18:20:48.758Z,86.30
2022-10-14T18:25:52.027Z,85.99
2022-10-14T18:30:55.551Z,87.20
2022-10-14T18:35:59.239Z,87.27
2022-10-14T18:41:07.924Z,87.86
2022-10-14T18:46:22.693Z,87.15
2022-10-14T18:51:28.473Z,86.40
2022-10-14T18:56:34.849Z,87.58
2022-10-14T19:01:40.295Z,88.29
2022-10-14T19:06:46.137Z,88.20
2022-10-14T19:11:53.232Z,88.09
2022-10-14T19:16:56.881Z,88.33
2022-10-14T19:22:01.228Z,88.21
2022-10-14T19:27:05.012Z,87.88
2022-10-14T19:32:08.551Z,88.82
2022-10-14T19:37:12.396Z,89.48
2022-10-14T19:42:15.619Z,89.83
2022-10-14T19:47:19.224Z,89.97
2022-10-14T19:52:22.394Z,89.87
2022-10-14T19:57:26.943Z,89.53
2022-10-14T20:02:31.599Z,89.24
2022-10-14T20:07:35.800Z,89.73
2022-10-14T20:12:39.627Z,89.66
2022-10-14T20:17:43.380Z,89.73
2022-10-14T20:22:47.486Z,90.32
2022-10-14T20:27:52.089Z,90.14
2022-10-14T20:32:55.647Z,89.85
2022-10-14T20:38:00.037Z,89.97
2022-10-14T20:43:05.684Z,90.02
2022-10-14T20:48:09.405Z,90.63
2022-10-14T20:53:14.084Z,90.98
2022-10-14T20:58:19.096Z,90.58
2022-10-14T21:03:23.280Z,90.49
2022-10-14T21:08:26.729Z,90.57
2022-10-14T21:13:33.037Z,90.75
2022-10-14T21:18:37.677Z,90.96
2022-10-14T21:23:41.939Z,90.94
2022-10-14T21:28:45.400Z,90.90
2022-10-14T21:33:57.230Z,91.00
2022-10-14T21:39:05.975Z,91.34
2022-10-14T21:44:11.364Z,91.42
2022-10-14T21:49:15.365Z,91.15
2022-10-14T21:54:18.477Z,91.16
2022-10-14T21:59:21.435Z,91.63
2022-10-14T22:04:27.449Z,91.83
2022-10-14T22:09:30.752Z,92.94
2022-10-14T22:14:34.241Z,92.20
2022-10-14T22:19:37.571Z,92.47
2022-10-14T22:24:40.997Z,92.18
2022-10-14T22:29:44.508Z,92.58
2022-10-14T22:34:51.241Z,92.85
2022-10-14T22:39:55.104Z,93.42
2022-10-14T22:44:58.543Z,93.67
2022-10-14T22:50:02.080Z,93.62
2022-10-14T22:55:06.625Z,92.86
2022-10-14T23:00:10.211Z,92.92
2022-10-14T23:05:13.743Z,93.88
2022-10-14T23:10:17.427Z,93.89
2022-10-14T23:15:21.444Z,93.51
2022-10-14T23:20:25.531Z,93.86
2022-10-14T23:25:29.523Z,93.81
2022-10-14T23:30:33.076Z,93.89
2022-10-14T23:35:38.838Z,93.92
2022-10-14T23:40:42.945Z,94.16
2022-10-14T23:45:46.628Z,94.54
2022-10-14T23:50:50.145Z,94.64
2022-10-14T23:55:54.686Z,94.52
